createdAt,value
2022-08-14T00:01:11.470Z,23.64
2022-08-14T00:03:42.364Z,23.60
2022-08-14T00:06:25.763Z,23.57
2022-08-14T00:08:59.115Z,23.57
2022-08-14T00:11:32.287Z,23.56
2022-08-14T00:14:02.842Z,23.56
2022-08-14T00:16:41.199Z,23.55
2022-08-14T00:19:19.245Z,23.56
2022-08-14T00:21:50.688Z,23.54
2022-08-14T00:24:28.093Z,23.49
2022-08-14T00:27:03.292Z,23.44
2022-08-14T00:29:40.291Z,23.42
2022-08-14T00:32:52.811Z,23.35
2022-08-14T00:35:03.580Z,23.28
2022-08-14T00:37:34.722Z,23.24
2022-08-14T00:40:27.366Z,23.21
2022-08-14T00:42:58.456Z,23.19
2022-08-14T00:45:30.538Z,23.18
2022-08-14T00:48:01.271Z,23.17
2022-08-14T00:50:32.107Z,23.14
2022-08-14T00:53:04.197Z,23.11
2022-08-14T00:55:35.935Z,23.10
2022-08-14T00:58:32.492Z,23.09
2022-08-14T01:01:05.089Z,23.09
2022-08-14T01:03:42.418Z,23.08
2022-08-14T01:06:18.511Z,23.09
2022-08-14T01:08:52.301Z,23.09
2022-08-14T01:11:31.499Z,23.09
2022-08-14T01:14:04.956Z,23.12
2022-08-14T01:16:55.467Z,23.13
2022-08-14T01:19:38.440Z,23.13
2022-08-14T01:22:18.486Z,23.11
2022-08-14T01:24:50.993Z,23.09
2022-08-14T01:27:24.158Z,23.09
2022-08-14T01:30:03.235Z,23.10
2022-08-14T01:32:51.083Z,23.10
2022-08-14T01:36:03.991Z,23.11
2022-08-14T01:38:16.565Z,23.13
2022-08-14T01:40:49.629Z,23.09
2022-08-14T01:43:21.991Z,23.06
2022-08-14T01:46:06.165Z,23.01
2022-08-14T01:48:37.870Z,22.98
2022-08-14T01:51:18.707Z,22.97
2022-08-14T01:53:55.912Z,22.96
2022-08-14T01:56:37.369Z,22.95
2022-08-14T01:59:18.231Z,22.97
2022-08-14T02:01:58.509Z,22.97
2022-08-14T02:04:40.703Z,22.98
2022-08-14T02:07:34.397Z,22.96
2022-08-14T02:10:18.091Z,22.94
2022-08-14T02:12:57.412Z,22.89
2022-08-14T02:15:28.304Z,22.88
2022-08-14T02:18:01.666Z,22.85
2022-08-14T02:20:34.167Z,22.85
2022-08-14T02:23:05.872Z,22.80
2022-08-14T02:25:41.197Z,22.78
2022-08-14T02:28:21.991Z,22.76
2022-08-14T02:30:55.935Z,22.72
2022-08-14T02:33:29.370Z,22.73
2022-08-14T02:36:25.831Z,22.71
2022-08-14T02:38:53.793Z,22.72
2022-08-14T02:41:28.634Z,22.69
2022-08-14T02:44:00.951Z,22.67
2022-08-14T02:46:33.857Z,22.63
2022-08-14T02:49:06.222Z,22.61
2022-08-14T02:51:37.156Z,22.60
2022-08-14T02:54:07.930Z,22.57
2022-08-14T02:57:15.356Z,22.56
2022-08-14T02:59:33.747Z,22.52
2022-08-14T03:02:05.069Z,22.46
2022-08-14T03:04:35.288Z,22.43
2022-08-14T03:07:07.126Z,22.43
2022-08-14T03:09:42.137Z,22.40
2022-08-14T03:12:32.857Z,22.35
2022-08-14T03:15:14.442Z,22.31
2022-08-14T03:17:57.133Z,22.28
2022-08-14T03:20:28.459Z,22.24
2022-08-14T03:23:03.137Z,22.22
2022-08-14T03:25:37.690Z,22.21
2022-08-14T03:28:14.765Z,22.20
2022-08-14T03:31:02.700Z,22.20
2022-08-14T03:33:37.913Z,22.17
2022-08-14T03:37:39.532Z,22.19
2022-08-14T03:39:15.647Z,22.19
2022-08-14T03:41:52.565Z,22.21
2022-08-14T03:45:19.481Z,22.21
2022-08-14T03:47:15.597Z,22.22
2022-08-14T03:49:49.981Z,22.24
2022-08-14T03:52:38.879Z,22.23
2022-08-14T03:55:12.388Z,22.22
2022-08-14T03:57:44.454Z,22.19
2022-08-14T04:00:40.331Z,22.16
2022-08-14T04:03:09.954Z,22.16
2022-08-14T04:05:48.475Z,22.17
2022-08-14T04:08:22.920Z,22.15
2022-08-14T04:11:01.532Z,22.12
2022-08-14T04:13:33.968Z,22.10
2022-08-14T04:16:12.350Z,22.08
2022-08-14T04:18:43.726Z,22.01
2022-08-14T04:21:13.861Z,22.00
2022-08-14T04:23:45.733Z,21.98
2022-08-14T04:26:42.882Z,21.97
2022-08-14T04:29:15.440Z,21.95
2022-08-14T04:33:01.503Z,21.96
2022-08-14T04:34:42.518Z,21.95
2022-08-14T04:37:45.541Z,21.92
2022-08-14T04:40:29.025Z,21.91
2022-08-14T04:43:14.288Z,21.89
2022-08-14T04:45:51.313Z,21.90
2022-08-14T04:48:38.712Z,21.99
2022-08-14T04:51:14.640Z,22.19
2022-08-14T04:53:46.143Z,22.46
2022-08-14T04:56:31.172Z,22.71
2022-08-14T04:59:10.158Z,22.98
2022-08-14T05:01:45.170Z,23.27
2022-08-14T05:04:21.402Z,23.61
2022-08-14T05:06:53.530Z,23.90
2022-08-14T05:09:24.678Z,24.21
2022-08-14T05:13:01.024Z,24.45
2022-08-14T05:14:55.131Z,24.75
2022-08-14T05:17:32.198Z,25.05
2022-08-14T05:21:10.771Z,25.39
2022-08-14T05:23:08.041Z,25.67
2022-08-14T05:25:40.973Z,25.85
2022-08-14T05:28:14.178Z,26.06
2022-08-14T05:30:46.453Z,26.18
2022-08-14T05:33:17.291Z,26.22
2022-08-14T05:35:51.104Z,26.26
2022-08-14T05:38:30.677Z,26.23
2022-08-14T05:41:01.110Z,26.33
2022-08-14T05:43:40.968Z,26.49
2022-08-14T05:46:15.213Z,26.51
2022-08-14T05:48:45.508Z,26.37
2022-08-14T05:51:18.650Z,26.32
2022-08-14T05:54:00.345Z,26.32
2022-08-14T05:56:38.282Z,26.34
2022-08-14T05:59:08.585Z,26.37
2022-08-14T06:01:38.777Z,26.28
2022-08-14T06:04:09.363Z,26.02
2022-08-14T06:06:44.912Z,25.73
2022-08-14T06:09:14.721Z,25.54
2022-08-14T06:11:44.933Z,25.40
2022-08-14T06:14:23.803Z,25.36
2022-08-14T06:16:53.989Z,25.45
2022-08-14T06:19:23.855Z,25.63
2022-08-14T06:21:59.357Z,25.86
2022-08-14T06:24:30.654Z,26.04
2022-08-14T06:27:06.254Z,26.20
2022-08-14T06:29:40.238Z,26.37
2022-08-14T06:32:36.800Z,26.55
2022-08-14T06:35:11.123Z,26.81
2022-08-14T06:37:48.954Z,27.02
2022-08-14T06:40:28.028Z,27.19
2022-08-14T06:43:00.506Z,27.35
2022-08-14T06:45:33.627Z,27.49
2022-08-14T06:48:06.287Z,27.62
2022-08-14T06:50:42.754Z,27.76
2022-08-14T06:53:20.042Z,27.87
2022-08-14T06:55:58.452Z,27.92
2022-08-14T06:58:33.157Z,27.92
2022-08-14T07:01:17.049Z,27.94
2022-08-14T07:04:02.789Z,27.84
2022-08-14T07:06:45.597Z,27.61
2022-08-14T07:09:22.608Z,27.57
2022-08-14T07:11:53.559Z,27.67
2022-08-14T07:14:23.425Z,27.79
2022-08-14T07:16:53.135Z,27.92
2022-08-14T07:19:23.889Z,28.09
2022-08-14T07:21:54.694Z,28.25
2022-08-14T07:24:31.358Z,28.46
2022-08-14T07:27:01.551Z,28.65
2022-08-14T07:29:31.343Z,28.76
2022-08-14T07:32:01.101Z,28.84
2022-08-14T07:34:40.550Z,28.99
2022-08-14T07:37:11.184Z,29.15
2022-08-14T07:39:44.046Z,29.25
2022-08-14T07:42:14.260Z,29.33
2022-08-14T07:44:50.615Z,29.34
2022-08-14T07:47:20.860Z,29.50
2022-08-14T07:50:04.366Z,29.67
2022-08-14T07:52:34.496Z,29.82
2022-08-14T07:55:08.108Z,30.00
2022-08-14T07:57:38.563Z,30.14
2022-08-14T08:00:30.992Z,30.27
2022-08-14T08:03:03.115Z,30.45
2022-08-14T08:05:33.897Z,30.63
2022-08-14T08:08:05.014Z,30.81
2022-08-14T08:11:02.408Z,30.87
2022-08-14T08:13:39.340Z,30.94
2022-08-14T08:16:10.583Z,31.03
2022-08-14T08:18:41.850Z,31.20
2022-08-14T08:21:13.223Z,31.39
2022-08-14T08:23:50.959Z,31.45
2022-08-14T08:26:24.255Z,31.53
2022-08-14T08:28:59.696Z,31.58
2022-08-14T08:31:33.088Z,31.64
2022-08-14T08:34:07.700Z,31.73
2022-08-14T08:36:46.739Z,31.74
2022-08-14T08:39:22.444Z,31.77
2022-08-14T08:41:55.889Z,31.71
2022-08-14T08:44:34.452Z,31.72
2022-08-14T08:47:06.744Z,31.55
2022-08-14T08:49:59.066Z,31.43
2022-08-14T08:52:31.925Z,31.26
2022-08-14T08:55:04.630Z,31.20
2022-08-14T08:57:39.920Z,31.16
2022-08-14T09:00:29.476Z,31.13
2022-08-14T09:03:02.084Z,31.14
2022-08-14T09:05:32.875Z,31.20
2022-08-14T09:08:31.876Z,31.15
2022-08-14T09:11:18.427Z,31.18
2022-08-14T09:13:54.205Z,31.24
2022-08-14T09:16:25.977Z,31.32
2022-08-14T09:18:56.455Z,31.39
2022-08-14T09:21:31.697Z,31.42
2022-08-14T09:24:28.119Z,31.43
2022-08-14T09:26:53.136Z,31.40
2022-08-14T09:29:28.813Z,31.49
2022-08-14T09:32:02.392Z,31.58
2022-08-14T09:34:50.933Z,31.67
2022-08-14T09:37:41.057Z,31.78
2022-08-14T09:40:21.752Z,31.80
2022-08-14T09:43:00.224Z,31.80
2022-08-14T09:45:53.232Z,31.70
2022-08-14T09:48:29.905Z,31.62
2022-08-14T09:54:12.999Z,31.75
2022-08-14T09:56:32.931Z,31.77
2022-08-14T09:59:16.706Z,31.73
2022-08-14T10:01:52.762Z,31.74
2022-08-14T10:04:34.711Z,31.73
2022-08-14T10:07:05.380Z,31.59
2022-08-14T10:09:35.486Z,31.57
2022-08-14T10:12:18.649Z,31.61
2022-08-14T10:14:53.456Z,31.58
2022-08-14T10:17:38.439Z,31.61
2022-08-14T10:20:40.827Z,31.63
2022-08-14T10:23:16.275Z,31.69
2022-08-14T10:25:50.849Z,31.73
2022-08-14T10:29:03.911Z,31.75
2022-08-14T10:31:25.325Z,31.76
2022-08-14T10:34:13.445Z,31.82
2022-08-14T10:36:49.830Z,31.79
2022-08-14T10:39:26.073Z,31.65
2022-08-14T10:42:10.458Z,31.56
2022-08-14T10:44:52.333Z,31.53
2022-08-14T10:47:41.118Z,31.55
2022-08-14T10:50:15.368Z,31.59
2022-08-14T10:52:47.356Z,31.57
2022-08-14T10:55:21.032Z,31.59
2022-08-14T10:57:53.358Z,31.65
2022-08-14T11:00:30.132Z,31.69
2022-08-14T11:03:09.571Z,31.68
2022-08-14T11:05:48.988Z,31.62
2022-08-14T11:08:34.858Z,31.55
2022-08-14T11:11:07.321Z,31.47
2022-08-14T11:13:38.913Z,31.39
2022-08-14T11:16:09.833Z,31.32
2022-08-14T11:18:40.863Z,31.24
2022-08-14T11:21:18.392Z,31.19
2022-08-14T11:23:53.724Z,31.15
2022-08-14T11:26:30.148Z,31.12
2022-08-14T11:29:03.616Z,31.19
2022-08-14T11:31:38.962Z,31.30
2022-08-14T11:34:29.828Z,31.36
2022-08-14T11:37:23.654Z,31.44
2022-08-14T11:40:01.124Z,31.47
2022-08-14T11:42:57.998Z,31.48
2022-08-14T11:45:23.455Z,31.49
2022-08-14T11:48:10.689Z,31.51
2022-08-14T11:50:43.459Z,31.47
2022-08-14T11:53:26.007Z,31.50
2022-08-14T11:56:05.485Z,31.56
2022-08-14T11:58:38.695Z,31.53
2022-08-14T12:01:11.164Z,31.46
2022-08-14T12:03:52.343Z,31.43
2022-08-14T12:06:28.744Z,31.41
2022-08-14T12:09:14.973Z,31.46
2022-08-14T12:11:47.454Z,31.51
2022-08-14T12:14:31.157Z,31.54
2022-08-14T12:17:09.490Z,31.57
2022-08-14T12:19:50.686Z,31.61
2022-08-14T12:22:36.173Z,31.57
2022-08-14T12:25:12.445Z,31.47
2022-08-14T12:27:53.694Z,31.39
2022-08-14T12:30:39.518Z,31.30
2022-08-14T12:33:31.182Z,31.19
2022-08-14T12:36:06.063Z,31.21
2022-08-14T12:38:38.891Z,31.23
2022-08-14T12:41:21.383Z,31.33
2022-08-14T12:43:55.581Z,31.42
2022-08-14T12:46:31.035Z,31.52
2022-08-14T12:49:06.447Z,31.63
2022-08-14T12:51:36.283Z,31.53
2022-08-14T12:54:18.610Z,31.53
2022-08-14T12:57:12.654Z,31.58
2022-08-14T12:59:49.513Z,31.52
2022-08-14T13:02:29.651Z,31.48
2022-08-14T13:04:59.589Z,31.52
2022-08-14T13:07:32.587Z,31.61
2022-08-14T13:10:45.795Z,31.64
2022-08-14T13:13:16.112Z,31.61
2022-08-14T13:15:48.023Z,31.57
2022-08-14T13:18:28.839Z,31.57
2022-08-14T13:21:02.299Z,31.56
2022-08-14T13:23:37.410Z,31.57
2022-08-14T13:26:10.149Z,31.61
2022-08-14T13:29:02.551Z,31.57
2022-08-14T13:31:37.157Z,31.58
2022-08-14T13:34:07.651Z,31.63
2022-08-14T13:36:54.709Z,31.73
2022-08-14T13:39:29.824Z,31.82
2022-08-14T13:42:10.929Z,31.85
2022-08-14T13:44:47.858Z,31.88
2022-08-14T13:47:20.196Z,31.90
2022-08-14T13:49:57.454Z,31.95
2022-08-14T13:52:51.500Z,31.95
2022-08-14T13:55:23.891Z,31.94
2022-08-14T13:58:04.294Z,31.91
2022-08-14T14:00:52.970Z,31.98
2022-08-14T14:03:30.427Z,31.97
2022-08-14T14:06:03.005Z,32.01
2022-08-14T14:08:43.646Z,32.03
2022-08-14T14:11:19.840Z,32.03
2022-08-14T14:13:51.152Z,31.99
2022-08-14T14:16:30.835Z,31.94
2022-08-14T14:19:09.514Z,31.79
2022-08-14T14:21:42.065Z,31.75
2022-08-14T14:24:17.183Z,31.77
2022-08-14T14:26:50.198Z,31.79
2022-08-14T14:29:23.954Z,31.82
2022-08-14T14:32:00.900Z,31.81
2022-08-14T14:34:33.460Z,31.77
2022-08-14T14:37:06.181Z,31.80
2022-08-14T14:40:50.790Z,31.84
2022-08-14T14:42:31.989Z,31.89
2022-08-14T14:45:16.057Z,31.91
2022-08-14T14:47:51.705Z,31.90
2022-08-14T14:50:29.720Z,31.87
2022-08-14T14:53:13.225Z,31.85
2022-08-14T14:56:47.447Z,31.87
2022-08-14T14:58:35.344Z,31.80
2022-08-14T15:01:08.730Z,31.74
2022-08-14T15:03:45.685Z,31.66
2022-08-14T15:06:17.642Z,31.65
2022-08-14T15:08:55.516Z,31.65
2022-08-14T15:11:30.149Z,31.62
2022-08-14T15:14:00.467Z,31.56
2022-08-14T15:16:30.350Z,31.48
2022-08-14T15:19:02.648Z,31.45
2022-08-14T15:21:32.426Z,31.42
2022-08-14T15:24:03.319Z,31.36
2022-08-14T15:26:35.676Z,31.33
2022-08-14T15:29:08.522Z,31.27
2022-08-14T15:31:39.793Z,31.27
2022-08-14T15:34:43.101Z,31.28
2022-08-14T15:37:06.032Z,31.25
2022-08-14T15:39:38.189Z,31.26
2022-08-14T15:42:16.280Z,31.22
2022-08-14T15:44:56.771Z,31.16
2022-08-14T15:47:29.769Z,31.17
2022-08-14T15:50:04.973Z,31.17
2022-08-14T15:52:37.308Z,31.11
2022-08-14T15:55:13.073Z,31.07
2022-08-14T15:57:51.729Z,31.06
2022-08-14T16:00:49.828Z,31.04
2022-08-14T16:03:27.080Z,31.04
2022-08-14T16:06:10.612Z,31.07
2022-08-14T16:08:41.456Z,31.10
2022-08-14T16:11:13.171Z,31.13
2022-08-14T16:13:47.658Z,31.13
2022-08-14T16:16:34.524Z,31.13
2022-08-14T16:19:12.751Z,31.13
2022-08-14T16:22:01.659Z,31.14
2022-08-14T16:27:34.305Z,31.04
2022-08-14T16:30:24.542Z,31.07
2022-08-14T16:32:59.303Z,31.09
2022-08-14T16:35:43.160Z,31.11
2022-08-14T16:38:47.783Z,31.15
2022-08-14T16:40:24.278Z,31.07
2022-08-14T16:41:27.306Z,31.14
2022-08-14T16:44:01.429Z,31.15
2022-08-14T16:46:34.935Z,31.16
2022-08-14T16:49:07.191Z,31.10
2022-08-14T16:51:39.139Z,31.05
2022-08-14T16:54:34.515Z,31.01
2022-08-14T16:57:19.794Z,30.96
2022-08-14T16:59:52.739Z,30.92
2022-08-14T17:02:37.061Z,30.89
2022-08-14T17:05:20.872Z,30.91
2022-08-14T17:08:32.613Z,30.93
2022-08-14T17:11:10.581Z,30.92
2022-08-14T17:13:58.829Z,30.94
2022-08-14T17:16:37.077Z,30.92
2022-08-14T17:19:13.489Z,30.91
2022-08-14T17:21:47.819Z,30.90
2022-08-14T17:24:56.308Z,30.89
2022-08-14T17:27:18.311Z,30.86
2022-08-14T17:29:56.348Z,30.83
2022-08-14T17:35:38.960Z,30.79
2022-08-14T17:38:33.626Z,30.75
2022-08-14T17:41:27.294Z,30.61
2022-08-14T17:44:21.932Z,30.42
2022-08-14T17:47:04.572Z,30.25
2022-08-14T17:49:40.585Z,30.10
2022-08-14T17:52:16.950Z,29.96
2022-08-14T17:54:52.690Z,29.81
2022-08-14T17:57:30.409Z,29.66
2022-08-14T18:00:10.806Z,29.50
2022-08-14T18:02:51.128Z,29.31
2022-08-14T18:06:08.616Z,29.15
2022-08-14T18:08:32.342Z,29.00
2022-08-14T18:11:03.321Z,28.87
2022-08-14T18:13:50.385Z,28.72
2022-08-14T18:16:30.388Z,28.52
2022-08-14T18:19:02.715Z,28.37
2022-08-14T18:21:56.528Z,28.27
2022-08-14T18:24:29.327Z,28.14
2022-08-14T18:27:15.032Z,28.01
2022-08-14T18:29:54.471Z,27.83
2022-08-14T18:32:55.067Z,27.73
2022-08-14T18:35:45.957Z,27.63
2022-08-14T18:38:45.953Z,27.56
2022-08-14T18:41:36.628Z,27.49
2022-08-14T18:44:10.900Z,27.42
2022-08-14T18:47:16.027Z,27.39
2022-08-14T18:50:26.134Z,27.40
2022-08-14T18:53:09.057Z,27.36
2022-08-14T18:55:54.295Z,27.33
2022-08-14T18:58:31.704Z,27.28
2022-08-14T19:01:06.081Z,27.24
2022-08-14T19:03:58.180Z,27.21
2022-08-14T19:06:56.384Z,27.15
2022-08-14T19:09:54.275Z,27.12
2022-08-14T19:12:56.757Z,27.08
2022-08-14T19:15:29.243Z,27.04
2022-08-14T19:18:10.736Z,27.03
2022-08-14T19:20:52.986Z,26.96
2022-08-14T19:23:42.824Z,26.90
2022-08-14T19:26:36.415Z,26.82
2022-08-14T19:29:26.412Z,26.75
2022-08-14T19:32:26.349Z,26.71
2022-08-14T19:35:00.015Z,26.70
2022-08-14T19:37:52.105Z,26.72
2022-08-14T19:40:35.403Z,26.69
2022-08-14T19:43:08.915Z,26.65
2022-08-14T19:45:40.233Z,26.63
2022-08-14T19:48:18.764Z,26.62
2022-08-14T19:50:48.947Z,26.60
2022-08-14T19:53:19.842Z,26.61
2022-08-14T19:56:02.621Z,26.60
2022-08-14T19:58:54.680Z,26.57
2022-08-14T20:01:37.116Z,26.54
2022-08-14T20:04:46.212Z,26.49
2022-08-14T20:07:01.710Z,26.49
2022-08-14T20:11:06.792Z,26.50
2022-08-14T20:12:36.690Z,26.45
2022-08-14T20:15:46.834Z,26.38
2022-08-14T20:18:45.930Z,26.33
2022-08-14T20:21:07.770Z,26.30
2022-08-14T20:23:38.936Z,26.27
2022-08-14T20:26:32.017Z,26.28
2022-08-14T20:29:07.045Z,26.26
2022-08-14T20:31:38.344Z,26.21
2022-08-14T20:34:18.863Z,26.16
2022-08-14T20:37:04.383Z,26.12
2022-08-14T20:39:36.122Z,26.09
2022-08-14T20:42:25.429Z,26.08
2022-08-14T20:45:14.136Z,26.12
2022-08-14T20:47:50.672Z,26.13
2022-08-14T20:50:28.553Z,26.20
2022-08-14T20:53:00.316Z,26.27
2022-08-14T20:55:33.359Z,26.33
2022-08-14T20:58:09.969Z,26.40
2022-08-14T21:01:00.760Z,26.50
2022-08-14T21:03:56.356Z,26.57
2022-08-14T21:06:29.895Z,26.61
2022-08-14T21:09:19.772Z,26.64
2022-08-14T21:12:33.980Z,26.68
2022-08-14T21:14:59.942Z,26.71
2022-08-14T21:17:30.584Z,26.72
2022-08-14T21:20:21.387Z,26.73
2022-08-14T21:22:53.339Z,26.75
2022-08-14T21:25:26.426Z,26.76
2022-08-14T21:28:01.916Z,26.78
2022-08-14T21:30:47.070Z,26.78
2022-08-14T21:33:21.976Z,26.79
2022-08-14T21:35:56.240Z,26.79
2022-08-14T21:38:34.116Z,26.74
2022-08-14T21:41:41.568Z,26.69
2022-08-14T21:44:17.170Z,26.61
2022-08-14T21:46:53.557Z,26.51
2022-08-14T21:49:37.429Z,26.40
2022-08-14T21:52:49.815Z,26.24
2022-08-14T21:55:09.351Z,26.15
2022-08-14T21:58:04.143Z,26.15
2022-08-14T22:00:39.704Z,26.10
2022-08-14T22:03:17.423Z,26.10
2022-08-14T22:05:49.592Z,26.13
2022-08-14T22:08:26.876Z,26.16
2022-08-14T22:10:59.190Z,26.18
2022-08-14T22:13:32.135Z,26.20
2022-08-14T22:16:03.605Z,26.22
2022-08-14T22:18:34.116Z,26.22
2022-08-14T22:21:08.196Z,26.23
2022-08-14T22:23:50.280Z,26.23
2022-08-14T22:26:22.335Z,26.22
2022-08-14T22:29:00.569Z,26.21
2022-08-14T22:31:35.250Z,26.19
2022-08-14T22:34:09.255Z,26.16
2022-08-14T22:36:51.096Z,26.14
2022-08-14T22:40:17.689Z,26.12
2022-08-14T22:42:21.353Z,26.09
2022-08-14T22:44:56.827Z,26.07
2022-08-14T22:47:40.496Z,26.06
2022-08-14T22:50:29.128Z,26.03
2022-08-14T22:53:02.705Z,26.00
2022-08-14T22:55:36.634Z,25.99
2022-08-14T22:58:06.979Z,25.95
2022-08-14T23:00:37.701Z,25.93
2022-08-14T23:03:17.363Z,25.92
2022-08-14T23:05:51.757Z,25.89
2022-08-14T23:09:02.245Z,25.86
2022-08-14T23:11:15.509Z,25.84
2022-08-14T23:13:46.795Z,25.81
2022-08-14T23:16:19.579Z,25.77
2022-08-14T23:18:53.923Z,25.74
2022-08-14T23:21:25.323Z,25.71
2022-08-14T23:24:00.866Z,25.65
2022-08-14T23:26:49.807Z,25.59
2022-08-14T23:29:25.014Z,25.54
2022-08-14T23:31:56.076Z,25.51
2022-08-14T23:34:29.778Z,25.50
2022-08-14T23:37:03.961Z,25.47
2022-08-14T23:39:35.621Z,25.43
2022-08-14T23:42:12.567Z,25.41
2022-08-14T23:44:49.078Z,25.41
2022-08-14T23:47:26.682Z,25.40
2022-08-14T23:50:03.465Z,25.41
2022-08-14T23:53:06.123Z,25.41
2022-08-14T23:55:32.600Z,25.40
2022-08-14T23:58:04.938Z,25.40
